createdAt,value
2018-03-18T00:02:06.409Z,10.83
2018-03-18T00:04:33.910Z,11.50
2018-03-18T00:07:01.376Z,11.17
2018-03-18T00:09:28.867Z,11.77
2018-03-18T00:11:56.331Z,9.87
2018-03-18T00:14:23.824Z,10.90
2018-03-18T00:16:51.283Z,10.97
2018-03-18T00:19:18.779Z,10.90
2018-03-18T00:21:46.250Z,10.77
2018-03-18T00:24:13.975Z,10.97
2018-03-18T00:26:43.447Z,11.37
2018-03-18T00:29:12.016Z,10.83
2018-03-18T00:31:39.509Z,11.07
2018-03-18T00:34:07.212Z,11.47
2018-03-18T00:36:34.683Z,11.73
2018-03-18T00:39:02.340Z,10.80
2018-03-18T00:41:30.320Z,11.17
2018-03-18T00:43:57.918Z,11.07
2018-03-18T00:46:25.430Z,11.53
2018-03-18T00:48:53.065Z,12.20
2018-03-18T00:51:33.392Z,12.00
2018-03-18T00:54:00.932Z,11.80
2018-03-18T00:56:28.771Z,11.47
2018-03-18T00:58:56.331Z,11.60
2018-03-18T01:01:23.848Z,12.20
2018-03-18T01:03:51.354Z,11.60
2018-03-18T01:06:18.895Z,12.33
2018-03-18T01:08:47.254Z,12.23
2018-03-18T01:11:15.365Z,11.60
2018-03-18T01:13:43.206Z,12.03
2018-03-18T01:16:10.776Z,12.67
2018-03-18T01:18:39.228Z,12.97
2018-03-18T01:21:06.820Z,12.23
2018-03-18T01:23:34.283Z,11.70
2018-03-18T01:26:01.766Z,12.00
2018-03-18T01:28:29.231Z,12.00
2018-03-18T01:30:56.739Z,12.47
2018-03-18T01:33:24.208Z,11.77
2018-03-18T01:35:51.708Z,12.17
2018-03-18T01:38:19.183Z,12.17
2018-03-18T01:40:46.671Z,12.30
2018-03-18T01:43:14.140Z,11.37
2018-03-18T01:45:41.628Z,12.37
2018-03-18T01:48:09.090Z,12.40
2018-03-18T01:50:36.588Z,12.17
2018-03-18T01:53:15.908Z,12.50
2018-03-18T01:55:43.392Z,12.80
2018-03-18T01:58:10.863Z,12.97
2018-03-18T02:00:38.358Z,12.73
2018-03-18T02:03:05.835Z,12.30
2018-03-18T02:05:33.317Z,12.80
2018-03-18T02:08:00.839Z,13.27
2018-03-18T02:10:28.332Z,12.47
2018-03-18T02:12:55.833Z,12.30
2018-03-18T02:15:23.298Z,13.07
2018-03-18T02:17:50.792Z,13.13
2018-03-18T02:20:18.261Z,13.33
2018-03-18T02:22:45.755Z,12.80
2018-03-18T02:25:13.227Z,12.27
2018-03-18T02:27:40.959Z,12.73
2018-03-18T02:30:08.438Z,12.60
2018-03-18T02:32:35.943Z,12.43
2018-03-18T02:35:04.256Z,13.00
2018-03-18T02:37:31.747Z,12.60
2018-03-18T02:39:59.217Z,12.17
2018-03-18T02:42:26.705Z,13.20
2018-03-18T02:44:54.179Z,12.97
2018-03-18T02:47:21.681Z,11.93
2018-03-18T02:49:49.144Z,11.93
2018-03-18T02:52:16.640Z,11.97
2018-03-18T02:54:44.108Z,12.77
2018-03-18T02:57:11.607Z,12.30
2018-03-18T02:59:39.071Z,12.50
2018-03-18T03:02:06.556Z,12.50
2018-03-18T03:04:34.015Z,12.60
2018-03-18T03:07:01.475Z,12.50
2018-03-18T03:09:28.979Z,12.00
2018-03-18T03:11:56.447Z,11.53
2018-03-18T03:14:23.931Z,11.80
2018-03-18T03:16:51.398Z,12.80
2018-03-18T03:19:18.891Z,13.13
2018-03-18T03:21:46.359Z,12.67
2018-03-18T03:24:13.847Z,13.03
2018-03-18T03:26:41.309Z,13.43
2018-03-18T03:29:08.792Z,12.47
2018-03-18T03:31:36.258Z,11.93
2018-03-18T03:34:03.835Z,12.60
2018-03-18T03:36:31.298Z,12.10
2018-03-18T03:38:58.786Z,11.83
2018-03-18T03:41:26.265Z,12.63
2018-03-18T03:43:53.751Z,12.47
2018-03-18T03:46:21.228Z,12.83
2018-03-18T03:48:48.723Z,13.03
2018-03-18T03:51:16.195Z,12.77
2018-03-18T03:53:43.683Z,12.73
2018-03-18T03:56:11.150Z,13.70
2018-03-18T03:58:38.650Z,12.60
2018-03-18T04:01:06.115Z,13.47
2018-03-18T04:03:33.575Z,13.63
2018-03-18T04:06:01.058Z,15.60
2018-03-18T04:08:28.523Z,15.93
2018-03-18T04:10:56.012Z,15.27
2018-03-18T04:13:23.482Z,16.53
2018-03-18T04:15:50.978Z,16.03
2018-03-18T04:18:18.442Z,15.93
2018-03-18T04:20:45.937Z,15.67
2018-03-18T04:23:13.398Z,15.67
2018-03-18T04:25:40.886Z,15.53
2018-03-18T04:28:08.350Z,15.17
2018-03-18T04:30:35.868Z,13.93
2018-03-18T04:33:03.337Z,15.03
2018-03-18T04:35:30.833Z,13.77
2018-03-18T04:37:58.292Z,13.33
2018-03-18T04:40:25.794Z,13.90
2018-03-18T04:42:53.256Z,13.10
2018-03-18T04:45:20.740Z,13.77
2018-03-18T04:47:48.218Z,13.20
2018-03-18T04:50:15.704Z,13.53
2018-03-18T04:52:43.178Z,13.10
2018-03-18T04:55:10.684Z,13.83
2018-03-18T04:57:38.150Z,12.80
2018-03-18T05:00:05.616Z,12.50
2018-03-18T05:02:33.109Z,13.57
2018-03-18T05:05:00.587Z,13.10
2018-03-18T05:07:28.090Z,15.20
2018-03-18T05:09:55.546Z,13.87
2018-03-18T05:12:23.031Z,14.30
2018-03-18T05:14:50.507Z,14.30
2018-03-18T05:17:18.002Z,13.50
2018-03-18T05:19:45.470Z,13.90
2018-03-18T05:22:12.958Z,13.37
2018-03-18T05:24:40.417Z,13.53
2018-03-18T05:27:07.902Z,13.47
2018-03-18T05:29:35.363Z,13.90
2018-03-18T05:32:02.860Z,14.17
2018-03-18T05:34:30.328Z,14.10
2018-03-18T05:36:57.818Z,13.77
2018-03-18T05:39:25.285Z,14.27
2018-03-18T05:41:52.802Z,14.77
2018-03-18T05:44:20.368Z,15.20
2018-03-18T05:46:47.839Z,14.80
2018-03-18T05:49:15.339Z,13.60
2018-03-18T05:51:42.803Z,14.47
2018-03-18T05:54:10.376Z,14.17
2018-03-18T05:56:37.853Z,14.17
2018-03-18T05:59:05.340Z,13.23
2018-03-18T06:01:32.807Z,14.77
2018-03-18T06:04:00.291Z,15.40
2018-03-18T06:06:27.761Z,15.53
2018-03-18T06:08:55.263Z,15.80
2018-03-18T06:11:22.732Z,15.70
2018-03-18T06:13:50.251Z,15.90
2018-03-18T06:16:17.711Z,15.87
2018-03-18T06:18:45.171Z,15.83
2018-03-18T06:21:12.659Z,15.57
2018-03-18T06:23:40.115Z,15.43
2018-03-18T06:26:07.615Z,15.87
2018-03-18T06:28:35.092Z,15.00
2018-03-18T06:31:02.600Z,15.97
2018-03-18T06:33:30.070Z,16.43
2018-03-18T06:35:57.567Z,15.10
2018-03-18T06:38:25.033Z,16.07
2018-03-18T06:40:52.523Z,14.37
2018-03-18T06:43:19.995Z,15.40
2018-03-18T06:45:47.483Z,15.00
2018-03-18T06:48:14.975Z,15.40
2018-03-18T06:50:42.490Z,15.80
2018-03-18T06:53:09.946Z,13.73
2018-03-18T06:55:37.411Z,14.40
2018-03-18T06:58:04.905Z,14.13
2018-03-18T07:00:33.495Z,13.87
2018-03-18T07:03:00.984Z,14.03
2018-03-18T07:05:28.454Z,13.73
2018-03-18T07:07:55.941Z,14.00
2018-03-18T07:10:23.399Z,13.33
2018-03-18T07:12:50.954Z,12.63
2018-03-18T07:15:18.375Z,12.67
2018-03-18T07:17:45.867Z,13.77
2018-03-18T07:20:13.331Z,12.03
2018-03-18T07:22:40.838Z,12.37
2018-03-18T07:25:08.311Z,12.77
2018-03-18T07:27:35.799Z,13.03
2018-03-18T07:30:03.269Z,12.17
2018-03-18T07:32:30.764Z,12.40
2018-03-18T07:34:58.224Z,13.17
2018-03-18T07:37:25.748Z,13.17
2018-03-18T07:39:53.206Z,12.07
2018-03-18T07:42:20.663Z,12.27
2018-03-18T07:44:48.151Z,12.47
2018-03-18T07:47:15.685Z,12.70
2018-03-18T07:49:43.143Z,12.57
2018-03-18T07:52:10.604Z,12.47
2018-03-18T07:54:38.132Z,11.73
2018-03-18T07:57:05.600Z,12.70
2018-03-18T07:59:33.089Z,12.20
2018-03-18T08:02:00.574Z,12.10
2018-03-18T08:04:28.070Z,12.73
2018-03-18T08:06:55.531Z,11.27
2018-03-18T08:09:23.027Z,13.17
2018-03-18T08:11:50.493Z,11.83
2018-03-18T08:14:18.054Z,12.27
2018-03-18T08:16:45.511Z,12.50
2018-03-18T08:19:12.984Z,11.97
2018-03-18T08:21:40.484Z,12.23
2018-03-18T08:24:08.888Z,11.87
2018-03-18T08:26:36.383Z,11.43
2018-03-18T08:29:03.864Z,11.93
2018-03-18T08:31:31.356Z,12.03
2018-03-18T08:33:58.819Z,11.70
2018-03-18T08:36:26.307Z,10.83
2018-03-18T08:38:53.771Z,10.63
2018-03-18T08:41:21.306Z,10.87
2018-03-18T08:43:48.735Z,11.00
2018-03-18T08:46:16.219Z,10.63
2018-03-18T08:48:43.689Z,9.60
2018-03-18T08:51:11.200Z,9.87
2018-03-18T08:53:38.668Z,8.70
2018-03-18T08:56:06.158Z,9.30
2018-03-18T08:58:33.681Z,9.53
2018-03-18T09:01:01.223Z,8.73
2018-03-18T09:03:28.708Z,9.63
2018-03-18T09:05:56.175Z,9.97
2018-03-18T09:08:23.667Z,9.27
2018-03-18T09:10:51.132Z,10.37
2018-03-18T09:13:18.607Z,8.83
2018-03-18T09:15:46.070Z,9.40
2018-03-18T09:18:13.566Z,9.20
2018-03-18T09:20:41.090Z,9.03
2018-03-18T09:23:08.568Z,9.43
2018-03-18T09:25:36.027Z,10.27
2018-03-18T09:28:03.510Z,10.40
2018-03-18T09:30:30.995Z,10.07
2018-03-18T09:32:58.496Z,9.70
2018-03-18T09:35:25.956Z,8.93
2018-03-18T09:37:53.411Z,9.17
2018-03-18T09:40:20.886Z,9.70
2018-03-18T09:42:48.339Z,9.33
2018-03-18T09:45:15.831Z,10.00
2018-03-18T09:47:43.305Z,9.27
2018-03-18T09:50:10.818Z,9.37
2018-03-18T09:52:38.283Z,9.23
2018-03-18T09:55:05.768Z,9.60
2018-03-18T09:57:33.238Z,8.90
2018-03-18T10:00:00.738Z,8.43
2018-03-18T10:02:28.213Z,8.90
2018-03-18T10:04:55.727Z,8.77
2018-03-18T10:07:23.187Z,8.80
2018-03-18T10:09:50.666Z,8.37
2018-03-18T10:12:18.160Z,8.97
2018-03-18T10:14:45.607Z,7.57
2018-03-18T10:17:13.091Z,8.60
2018-03-18T10:19:40.547Z,8.40
2018-03-18T10:22:08.043Z,8.20
2018-03-18T10:24:35.527Z,8.83
2018-03-18T10:27:03.010Z,9.33
2018-03-18T10:29:30.481Z,9.93
2018-03-18T10:31:57.985Z,8.87
2018-03-18T10:34:25.512Z,9.00
2018-03-18T10:36:53.036Z,9.23
2018-03-18T10:39:20.499Z,8.57
2018-03-18T10:41:47.989Z,8.97
2018-03-18T10:44:15.450Z,9.10
2018-03-18T10:46:42.945Z,9.53
2018-03-18T10:49:10.406Z,8.57
2018-03-18T10:51:37.863Z,8.40
2018-03-18T10:54:16.397Z,8.27
2018-03-18T10:59:23.148Z,8.47
2018-03-18T11:01:55.558Z,8.23
2018-03-18T11:04:23.048Z,8.53
2018-03-18T11:06:50.518Z,8.03
2018-03-18T11:09:18.017Z,8.50
2018-03-18T11:11:45.462Z,8.33
2018-03-18T11:14:12.956Z,8.27
2018-03-18T11:16:40.455Z,8.63
2018-03-18T11:19:07.946Z,8.27
2018-03-18T11:21:35.403Z,8.67
2018-03-18T11:24:02.884Z,8.23
2018-03-18T11:26:30.336Z,8.17
2018-03-18T11:28:57.817Z,8.50
2018-03-18T11:31:25.273Z,8.07
2018-03-18T11:33:52.762Z,8.03
2018-03-18T11:36:20.236Z,7.97
2018-03-18T11:38:47.748Z,7.67
2018-03-18T11:41:15.443Z,7.90
2018-03-18T11:43:43.139Z,7.57
2018-03-18T11:46:10.643Z,8.43
2018-03-18T11:48:38.183Z,8.13
2018-03-18T11:51:05.663Z,7.83
2018-03-18T11:53:33.124Z,7.57
2018-03-18T11:56:00.638Z,7.67
2018-03-18T11:58:28.106Z,7.73
2018-03-18T12:00:55.590Z,7.13
2018-03-18T12:03:23.043Z,7.57
2018-03-18T12:05:50.536Z,8.17
2018-03-18T12:08:30.558Z,7.57
2018-03-18T12:10:58.062Z,7.50
2018-03-18T12:13:26.099Z,7.20
2018-03-18T12:15:53.680Z,7.57
2018-03-18T12:18:21.166Z,7.77
2018-03-18T12:20:49.527Z,6.97
2018-03-18T12:23:16.999Z,8.17
2018-03-18T12:25:44.448Z,7.77
2018-03-18T12:28:11.928Z,7.03
2018-03-18T12:30:39.375Z,7.17
2018-03-18T12:33:06.847Z,6.97
2018-03-18T12:35:45.883Z,6.80
2018-03-18T12:38:13.363Z,7.17
2018-03-18T12:40:51.547Z,7.97
2018-03-18T12:43:27.665Z,7.57
2018-03-18T12:45:55.116Z,6.93
2018-03-18T12:48:22.614Z,7.60
2018-03-18T12:50:50.080Z,7.20
2018-03-18T12:53:17.559Z,7.00
2018-03-18T12:55:45.026Z,7.13
2018-03-18T12:58:13.656Z,6.83
2018-03-18T13:00:41.113Z,7.33
2018-03-18T13:03:08.665Z,6.80
2018-03-18T13:05:36.135Z,6.63
2018-03-18T13:08:03.624Z,6.90
2018-03-18T13:10:31.110Z,6.70
2018-03-18T13:12:58.563Z,6.73
2018-03-18T13:15:26.060Z,7.10
2018-03-18T13:17:53.531Z,6.50
2018-03-18T13:20:21.008Z,6.60
2018-03-18T13:22:48.456Z,7.40
2018-03-18T13:25:15.948Z,7.57
2018-03-18T13:27:43.400Z,7.20
2018-03-18T13:30:10.897Z,6.70
2018-03-18T13:32:38.360Z,6.87
2018-03-18T13:35:05.813Z,7.40
2018-03-18T13:37:33.297Z,7.57
2018-03-18T13:40:00.752Z,7.13
2018-03-18T13:42:28.248Z,6.97
2018-03-18T13:44:55.769Z,6.77
2018-03-18T13:47:23.257Z,7.33
2018-03-18T13:49:50.707Z,7.37
2018-03-18T13:52:18.216Z,7.23
2018-03-18T13:54:45.708Z,6.90
2018-03-18T13:57:13.198Z,7.00
2018-03-18T13:59:41.099Z,7.10
2018-03-18T14:02:09.856Z,7.07
2018-03-18T14:04:37.369Z,6.80
2018-03-18T14:07:04.867Z,6.47
2018-03-18T14:09:32.327Z,6.82
2018-03-18T14:11:59.783Z,6.90
2018-03-18T14:14:27.266Z,7.30
2018-03-18T14:16:56.734Z,7.30
2018-03-18T14:19:24.465Z,6.87
2018-03-18T14:21:51.941Z,7.00
2018-03-18T14:24:19.421Z,6.80
2018-03-18T14:26:46.885Z,6.40
2018-03-18T14:29:14.363Z,7.50
2018-03-18T14:31:41.819Z,6.63
2018-03-18T14:34:09.296Z,7.13
2018-03-18T14:36:36.767Z,7.87
2018-03-18T14:39:04.249Z,6.30
2018-03-18T14:41:31.715Z,7.23
2018-03-18T14:44:01.133Z,6.73
2018-03-18T14:46:28.591Z,6.80
2018-03-18T14:48:56.062Z,7.07
2018-03-18T14:51:23.547Z,7.27
2018-03-18T14:53:51.003Z,6.80
2018-03-18T14:56:18.548Z,6.83
2018-03-18T14:58:46.471Z,6.53
2018-03-18T15:01:13.993Z,6.90
2018-03-18T15:03:41.476Z,6.77
2018-03-18T15:06:08.963Z,6.57
2018-03-18T15:08:36.423Z,6.70
2018-03-18T15:11:03.909Z,6.43
2018-03-18T15:13:31.371Z,6.10
2018-03-18T15:15:58.827Z,6.73
2018-03-18T15:18:26.299Z,6.80
2018-03-18T15:20:53.759Z,6.90
2018-03-18T15:23:21.267Z,6.33
2018-03-18T15:25:48.728Z,6.20
2018-03-18T15:28:16.202Z,6.77
2018-03-18T15:30:43.665Z,6.30
2018-03-18T15:33:11.152Z,6.37
2018-03-18T15:35:38.606Z,6.13
2018-03-18T15:38:06.083Z,6.47
2018-03-18T15:40:33.531Z,6.37
2018-03-18T15:43:01.019Z,6.03
2018-03-18T15:45:28.484Z,6.30
2018-03-18T15:47:55.957Z,6.30
2018-03-18T15:50:23.481Z,6.13
2018-03-18T15:52:51.023Z,6.47
2018-03-18T15:55:18.519Z,6.63
2018-03-18T15:57:45.978Z,6.10
2018-03-18T16:00:13.464Z,7.00
2018-03-18T16:02:41.051Z,6.27
2018-03-18T16:05:08.526Z,6.17
2018-03-18T16:07:36.122Z,6.40
2018-03-18T16:10:03.609Z,6.77
2018-03-18T16:12:31.100Z,7.07
2018-03-18T16:14:58.583Z,6.30
2018-03-18T16:17:26.039Z,6.63
2018-03-18T16:19:53.524Z,6.37
2018-03-18T16:22:20.979Z,5.77
2018-03-18T16:24:48.475Z,5.97
2018-03-18T16:27:15.940Z,6.90
2018-03-18T16:29:55.280Z,6.60
2018-03-18T16:32:22.735Z,6.57
2018-03-18T16:34:50.208Z,6.43
2018-03-18T16:37:20.663Z,5.30
2018-03-18T16:39:48.127Z,6.30
2018-03-18T16:42:16.191Z,5.90
2018-03-18T16:44:43.694Z,5.60
2018-03-18T16:47:11.188Z,6.00
2018-03-18T16:49:43.701Z,5.93
2018-03-18T16:52:11.220Z,5.73
2018-03-18T16:54:39.074Z,5.87
2018-03-18T16:57:06.598Z,5.60
2018-03-18T16:59:34.063Z,5.83
2018-03-18T17:02:01.544Z,6.13
2018-03-18T17:04:29.000Z,5.67
2018-03-18T17:06:56.500Z,5.70
2018-03-18T17:09:23.988Z,5.70
2018-03-18T17:11:51.479Z,5.30
2018-03-18T17:14:18.990Z,5.63
2018-03-18T17:16:47.063Z,5.67
2018-03-18T17:19:14.519Z,5.83
2018-03-18T17:21:41.977Z,5.30
2018-03-18T17:24:10.316Z,6.00
2018-03-18T17:26:37.778Z,5.67
2018-03-18T17:29:05.293Z,5.50
2018-03-18T17:31:32.763Z,5.60
2018-03-18T17:34:00.280Z,4.97
2018-03-18T17:36:27.735Z,5.27
2018-03-18T17:38:55.206Z,5.50
2018-03-18T17:41:22.659Z,5.70
2018-03-18T17:43:50.168Z,5.20
2018-03-18T17:46:29.307Z,5.50
2018-03-18T17:49:08.542Z,5.17
2018-03-18T17:51:47.597Z,5.83
2018-03-18T17:54:26.947Z,5.87
2018-03-18T17:56:54.399Z,5.27
2018-03-18T17:59:21.883Z,5.30
2018-03-18T18:01:49.387Z,5.13
2018-03-18T18:04:16.883Z,5.10
2018-03-18T18:06:44.343Z,5.10
2018-03-18T18:09:11.850Z,5.57
2018-03-18T18:11:39.324Z,5.40
2018-03-18T18:14:06.775Z,5.90
2018-03-18T18:16:34.281Z,5.37
2018-03-18T18:19:01.739Z,5.53
2018-03-18T18:21:29.256Z,5.57
2018-03-18T18:23:56.711Z,5.37
2018-03-18T18:26:24.231Z,5.57
2018-03-18T18:28:51.712Z,5.50
2018-03-18T18:31:19.205Z,5.13
2018-03-18T18:33:46.659Z,5.30
2018-03-18T18:36:14.148Z,4.90
2018-03-18T18:38:41.621Z,5.00
2018-03-18T18:41:09.126Z,5.13
2018-03-18T18:43:36.603Z,5.40
2018-03-18T18:46:04.078Z,5.40
2018-03-18T18:48:31.567Z,5.47
2018-03-18T18:50:59.023Z,5.37
2018-03-18T18:53:26.532Z,5.00
2018-03-18T18:55:54.000Z,5.60
2018-03-18T18:58:21.478Z,4.83
2018-03-18T19:00:48.933Z,4.90
2018-03-18T19:03:16.436Z,5.30
2018-03-18T19:05:43.886Z,5.20
2018-03-18T19:08:11.388Z,4.70
2018-03-18T19:10:38.853Z,4.63
2018-03-18T19:13:06.314Z,4.77
2018-03-18T19:15:33.792Z,5.10
2018-03-18T19:18:01.273Z,5.17
2018-03-18T19:20:28.746Z,4.60
2018-03-18T19:22:56.203Z,5.03
2018-03-18T19:25:23.692Z,5.00
2018-03-18T19:27:51.155Z,5.63
2018-03-18T19:30:18.683Z,5.27
2018-03-18T19:32:46.152Z,4.83
2018-03-18T19:35:13.687Z,4.90
2018-03-18T19:37:41.157Z,4.70
2018-03-18T19:40:08.652Z,4.87
2018-03-18T19:42:36.131Z,4.93
2018-03-18T19:45:03.698Z,4.57
2018-03-18T19:47:31.180Z,4.83
2018-03-18T19:50:01.267Z,4.90
2018-03-18T19:52:28.737Z,4.40
2018-03-18T19:54:56.204Z,4.67
2018-03-18T19:57:23.701Z,4.93
2018-03-18T19:59:51.176Z,4.50
2018-03-18T20:02:18.676Z,4.37
2018-03-18T20:04:46.126Z,4.60
2018-03-18T20:07:13.612Z,4.07
2018-03-18T20:09:41.088Z,5.17
2018-03-18T20:12:08.875Z,4.23
2018-03-18T20:14:36.345Z,4.63
2018-03-18T20:17:03.826Z,4.90
2018-03-18T20:19:31.315Z,4.17
2018-03-18T20:21:58.805Z,4.40
2018-03-18T20:24:27.271Z,4.00
2018-03-18T20:26:54.834Z,4.27
2018-03-18T20:29:22.552Z,4.43
2018-03-18T20:31:50.139Z,4.70
2018-03-18T20:34:17.602Z,5.00
2018-03-18T20:36:45.088Z,4.07
2018-03-18T20:39:12.620Z,4.43
2018-03-18T20:41:40.145Z,4.87
2018-03-18T20:44:07.662Z,4.40
2018-03-18T20:46:35.143Z,4.27
2018-03-18T20:49:02.658Z,4.90
2018-03-18T20:51:30.188Z,4.70
2018-03-18T20:53:58.563Z,4.10
2018-03-18T20:56:26.055Z,4.30
2018-03-18T20:58:55.644Z,4.47
2018-03-18T21:01:23.157Z,4.77
2018-03-18T21:03:51.005Z,4.20
2018-03-18T21:06:18.956Z,4.47
2018-03-18T21:08:46.498Z,4.70
2018-03-18T21:11:13.985Z,4.33
2018-03-18T21:13:41.506Z,4.33
2018-03-18T21:16:09.002Z,4.70
2018-03-18T21:18:36.527Z,4.40
2018-03-18T21:21:03.992Z,4.17
2018-03-18T21:23:31.494Z,4.87
2018-03-18T21:25:58.980Z,4.90
2018-03-18T21:28:26.562Z,4.90
2018-03-18T21:30:54.116Z,4.23
2018-03-18T21:33:21.635Z,5.13
2018-03-18T21:35:49.143Z,4.47
2018-03-18T21:38:16.675Z,5.13
2018-03-18T21:40:44.154Z,4.37
2018-03-18T21:43:11.657Z,4.77
2018-03-18T21:45:39.240Z,4.73
2018-03-18T21:48:06.803Z,4.27
2018-03-18T21:50:34.356Z,5.13
2018-03-18T21:53:01.905Z,5.10
2018-03-18T21:55:29.477Z,4.23
2018-03-18T21:57:57.937Z,4.53
2018-03-18T22:00:25.556Z,4.87
2018-03-18T22:02:53.076Z,4.53
2018-03-18T22:05:20.720Z,5.10
2018-03-18T22:07:48.245Z,4.53
2018-03-18T22:10:15.816Z,4.97
2018-03-18T22:12:43.381Z,4.90
2018-03-18T22:15:10.985Z,4.67
2018-03-18T22:17:38.523Z,4.43
2018-03-18T22:20:06.092Z,4.40
2018-03-18T22:22:33.656Z,4.90
2018-03-18T22:25:01.235Z,4.43
2018-03-18T22:27:28.784Z,5.23
2018-03-18T22:29:56.344Z,4.80
2018-03-18T22:32:23.905Z,4.40
2018-03-18T22:34:51.440Z,5.10
2018-03-18T22:37:19.000Z,4.70
2018-03-18T22:39:46.535Z,5.07
2018-03-18T22:42:14.660Z,4.97
2018-03-18T22:44:42.196Z,4.87
2018-03-18T22:47:09.777Z,4.47
2018-03-18T22:49:37.332Z,5.03
2018-03-18T22:52:04.973Z,4.63
2018-03-18T22:54:32.523Z,4.83
2018-03-18T22:57:00.050Z,5.10
2018-03-18T22:59:27.633Z,4.43
2018-03-18T23:01:55.153Z,5.33
2018-03-18T23:04:22.704Z,5.40
2018-03-18T23:06:50.229Z,5.30
2018-03-18T23:09:17.720Z,5.67
2018-03-18T23:11:45.187Z,5.83
2018-03-18T23:14:12.665Z,5.37
2018-03-18T23:16:40.128Z,5.10
2018-03-18T23:19:07.623Z,5.17
2018-03-18T23:21:35.075Z,6.10
2018-03-18T23:24:02.592Z,5.17
2018-03-18T23:26:30.042Z,5.50
2018-03-18T23:28:57.519Z,5.57
2018-03-18T23:31:24.981Z,5.57
2018-03-18T23:33:52.498Z,5.20
2018-03-18T23:36:19.958Z,5.27
2018-03-18T23:38:47.420Z,5.10
2018-03-18T23:41:14.906Z,5.47
2018-03-18T23:43:42.365Z,5.73
2018-03-18T23:46:09.863Z,5.40
2018-03-18T23:48:37.322Z,5.20
2018-03-18T23:51:04.815Z,5.97
2018-03-18T23:53:32.267Z,5.73
2018-03-18T23:55:59.749Z,5.03
2018-03-18T23:58:27.207Z,5.77
